Time;durP1;ratioP1;P1;durP2;ratioP2;P2;SDS_P1;SDS_P2;PMS_P1;PMS_P2;Temp;Humidity;BMP_temperature;BMP_pressure;BME280_temperature;BME280_humidity;BME280_pressure;Samples;Min_cycle;Max_cycle;Signal;HPM_P1;HPM_P2
2024/02/27 00:01:05;;;;;;;;;;;;;;;-144.99;nan;52582.63;5027515;28;20523;-71
2024/02/27 00:03:32;;;;;;;;;;;;;;;-144.99;nan;52578.53;5029759;28;19984;-68
2024/02/27 00:06:00;;;;;;;;;;;;;;;-144.99;nan;52603.00;5024010;28;19937;-69
2024/02/27 00:08:26;;;;;;;;;;;;;;;-144.99;nan;52578.53;5025330;28;20218;-70
2024/02/27 00:10:52;;;;;;;;;;;;;;;-144.99;nan;52623.38;5024270;28;20439;-70
2024/02/27 00:13:19;;;;;;;;;;;;;;;-144.99;nan;52619.31;5025969;28;20016;-70
2024/02/27 00:15:45;;;;;;;;;;;;;;;-144.99;nan;52582.63;5024695;28;20383;-69
2024/02/27 00:18:13;;;;;;;;;;;;;;;-144.99;nan;52625.44;5023829;28;20006;-69
2024/02/27 00:20:40;;;;;;;;;;;;;;;-144.99;nan;52562.25;5026605;28;20009;-69
2024/02/27 00:23:07;;;;;;;;;;;;;;;-144.99;nan;52590.78;5026235;28;19963;-70
2024/02/27 00:25:34;;;;;;;;;;;;;;;-144.99;nan;52590.78;5025630;28;20024;-69
2024/02/27 00:28:00;;;;;;;;;;;;;;;-144.99;nan;52613.19;5023573;28;19929;-70
2024/02/27 00:30:27;;;;;;;;;;;;;;;-144.99;nan;52576.50;5026171;28;20575;-69
2024/02/27 00:32:53;;;;;;;;;;;;;;;-144.99;nan;52578.53;5025779;28;20016;-68
2024/02/27 00:35:19;;;;;;;;;;;;;;;-144.99;nan;52590.78;5025935;28;20669;-68
2024/02/27 00:37:46;;;;;;;;;;;;;;;-144.99;nan;52578.53;5032623;28;20023;-68
2024/02/27 00:40:14;;;;;;;;;;;;;;;-144.99;nan;52574.47;5025480;28;19971;-70
2024/02/27 00:42:40;;;;;;;;;;;;;;;-144.99;nan;52578.53;5024660;28;20416;-69
2024/02/27 00:45:07;;;;;;;;;;;;;;;-144.99;nan;52611.16;5025952;28;19939;-72
2024/02/27 00:47:33;;;;;;;;;;;;;;;-144.99;nan;52588.75;5023386;28;20020;-70
2024/02/27 00:50:00;;;;;;;;;;;;;;;-144.99;nan;52611.16;5023636;28;20055;-70
2024/02/27 00:52:26;;;;;;;;;;;;;;;-144.99;nan;52605.03;5024207;28;19991;-70
2024/02/27 00:54:53;;;;;;;;;;;;;;;-144.99;nan;52609.13;5024295;28;20012;-68
2024/02/27 00:57:20;;;;;;;;;;;;;;;-144.99;nan;52582.63;5022590;28;19951;-70
2024/02/27 00:59:47;;;;;;;;;;;;;;;-144.99;nan;52541.84;5023320;28;20002;-71
2024/02/27 01:02:13;;;;;;;;;;;;;;;-144.99;nan;52562.25;5024140;28;19925;-71
2024/02/27 01:04:40;;;;;;;;;;;;;;;-144.99;nan;52566.31;5024204;28;19931;-71
2024/02/27 01:07:06;;;;;;;;;;;;;;;-144.99;nan;52578.53;5023807;28;19932;-69
2024/02/27 01:09:33;;;;;;;;;;;;;;;-144.99;nan;52607.09;5022081;28;20464;-69
2024/02/27 01:12:00;;;;;;;;;;;;;;;-144.99;nan;52590.78;5023259;28;19933;-71
2024/02/27 01:14:28;;;;;;;;;;;;;;;-144.99;nan;52576.50;5022023;28;20023;-72
2024/02/27 01:16:54;;;;;;;;;;;;;;;-144.99;nan;52572.44;5006367;28;20462;-69
2024/02/27 01:19:21;;;;;;;;;;;;;;;-144.99;nan;52598.94;5023643;28;19925;-70
2024/02/27 01:21:47;;;;;;;;;;;;;;;-144.99;nan;52582.63;5023333;28;19939;-71
2024/02/27 01:24:14;;;;;;;;;;;;;;;-144.99;nan;52570.38;5024374;28;20437;-72
2024/02/27 01:26:40;;;;;;;;;;;;;;;-144.99;nan;52611.16;5022890;28;20181;-71
2024/02/27 01:29:07;;;;;;;;;;;;;;;-144.99;nan;52615.25;5024902;28;19964;-72
2024/02/27 01:31:34;;;;;;;;;;;;;;;-144.99;nan;52590.78;5023199;28;20008;-72
2024/02/27 01:34:01;;;;;;;;;;;;;;;-144.99;nan;52603.00;5024255;28;20405;-72
2024/02/27 01:36:27;;;;;;;;;;;;;;;-144.99;nan;52582.63;5028250;28;19953;-72
2024/02/27 01:38:54;;;;;;;;;;;;;;;-144.99;nan;52574.47;5030468;28;20047;-70
2024/02/27 01:41:20;;;;;;;;;;;;;;;-144.99;nan;52582.63;5029150;28;20440;-71
2024/02/27 01:43:46;;;;;;;;;;;;;;;-144.99;nan;52582.63;5029901;28;20011;-70
2024/02/27 01:46:14;;;;;;;;;;;;;;;-144.99;nan;52590.78;5030197;28;20464;-72
2024/02/27 01:48:43;;;;;;;;;;;;;;;-144.99;nan;52545.94;5030443;28;20463;-72
2024/02/27 01:51:10;;;;;;;;;;;;;;;-144.99;nan;52582.63;5030601;28;19925;-72
2024/02/27 01:53:38;;;;;;;;;;;;;;;-144.99;nan;52594.84;5028384;28;19933;-73
2024/02/27 01:56:04;;;;;;;;;;;;;;;-144.99;nan;52617.28;5031509;28;20327;-71
2024/02/27 01:58:31;;;;;;;;;;;;;;;-144.99;nan;52611.16;5030723;28;20353;-73
2024/02/27 02:00:58;;;;;;;;;;;;;;;-144.99;nan;52574.47;5030446;28;20020;-71
2024/02/27 02:03:26;;;;;;;;;;;;;;;-144.99;nan;52578.53;5029207;28;19935;-70
2024/02/27 02:05:55;;;;;;;;;;;;;;;-144.99;nan;52550.00;5030160;28;20377;-72
2024/02/27 02:08:22;;;;;;;;;;;;;;;-144.99;nan;52631.53;5031373;28;20024;-71
2024/02/27 02:10:48;;;;;;;;;;;;;;;-144.99;nan;52588.75;5029949;28;20500;-72
2024/02/27 02:13:15;;;;;;;;;;;;;;;-144.99;nan;52554.09;5029249;28;19925;-72
2024/02/27 02:15:42;;;;;;;;;;;;;;;-144.99;nan;52582.63;5033329;28;20424;-69
2024/02/27 02:18:08;;;;;;;;;;;;;;;-144.99;nan;52586.69;5030761;28;20351;-70
2024/02/27 02:20:36;;;;;;;;;;;;;;;-144.99;nan;52603.00;5033514;28;20412;-70
2024/02/27 02:23:02;;;;;;;;;;;;;;;-144.99;nan;52592.81;5030892;28;19925;-70
2024/02/27 02:25:32;;;;;;;;;;;;;;;-144.99;nan;52607.09;5027800;28;20035;-71
2024/02/27 02:27:59;;;;;;;;;;;;;;;-144.99;nan;52574.47;5033131;28;19929;-71
2024/02/27 02:30:25;;;;;;;;;;;;;;;-144.99;nan;52590.78;5030224;28;19929;-71
2024/02/27 02:32:52;;;;;;;;;;;;;;;-144.99;nan;52598.94;5030161;28;20159;-70
2024/02/27 02:35:18;;;;;;;;;;;;;;;-144.99;nan;52611.16;5031184;28;20023;-71
2024/02/27 02:37:48;;;;;;;;;;;;;;;-144.99;nan;52580.59;5028736;28;20016;-72
2024/02/27 02:40:15;;;;;;;;;;;;;;;-144.99;nan;52619.31;5029235;28;20531;-72
2024/02/27 02:42:42;;;;;;;;;;;;;;;-144.99;nan;52554.09;5028955;28;19935;-72
2024/02/27 02:45:08;;;;;;;;;;;;;;;-144.99;nan;52578.53;5030424;28;20002;-72
2024/02/27 02:47:35;;;;;;;;;;;;;;;-144.99;nan;52594.84;5026807;28;19925;-72
2024/02/27 02:50:01;;;;;;;;;;;;;;;-144.99;nan;52594.84;5026967;28;19929;-72
2024/02/27 02:52:28;;;;;;;;;;;;;;;-144.99;nan;52629.50;5026399;28;20014;-72
2024/02/27 02:54:56;;;;;;;;;;;;;;;-144.99;nan;52562.25;5025460;28;20277;-71
2024/02/27 02:57:22;;;;;;;;;;;;;;;-144.99;nan;52594.84;5024249;28;20452;-71
2024/02/27 02:59:48;;;;;;;;;;;;;;;-144.99;nan;52552.03;5027270;28;20019;-70
2024/02/27 03:02:15;;;;;;;;;;;;;;;-144.99;nan;52586.69;5026961;28;20019;-71
2024/02/27 03:04:41;;;;;;;;;;;;;;;-144.99;nan;52619.31;5025504;28;20456;-71
2024/02/27 03:07:08;;;;;;;;;;;;;;;-144.99;nan;52537.78;5025561;28;20365;-70
2024/02/27 03:09:34;;;;;;;;;;;;;;;-144.99;nan;52594.84;5025561;28;19957;-71
2024/02/27 03:12:02;;;;;;;;;;;;;;;-144.99;nan;52615.25;5025528;28;19933;-70
2024/02/27 03:14:28;;;;;;;;;;;;;;;-144.99;nan;52586.69;5025363;28;20055;-69
2024/02/27 03:16:55;;;;;;;;;;;;;;;-144.99;nan;52541.84;5029003;28;19979;-71
2024/02/27 03:19:22;;;;;;;;;;;;;;;-144.99;nan;52598.94;5025727;28;19961;-71
2024/02/27 03:21:48;;;;;;;;;;;;;;;-144.99;nan;52566.31;5025975;28;19926;-70
2024/02/27 03:24:14;;;;;;;;;;;;;;;-144.99;nan;52582.63;5026011;28;19987;-70
2024/02/27 03:26:42;;;;;;;;;;;;;;;-144.99;nan;52586.69;5025055;28;19925;-70
2024/02/27 03:29:10;;;;;;;;;;;;;;;-144.99;nan;52598.94;5026124;28;20352;-73
2024/02/27 03:31:36;;;;;;;;;;;;;;;-144.99;nan;52566.31;5026787;28;20675;-69
2024/02/27 03:34:03;;;;;;;;;;;;;;;-144.99;nan;52615.25;5027399;28;20024;-70
2024/02/27 03:36:29;;;;;;;;;;;;;;;-144.99;nan;52598.94;5024445;28;20012;-71
2024/02/27 03:38:55;;;;;;;;;;;;;;;-144.99;nan;52588.75;5024576;28;20426;-71
2024/02/27 03:41:22;;;;;;;;;;;;;;;-144.99;nan;52598.94;5024263;28;20059;-70
2024/02/27 03:43:48;;;;;;;;;;;;;;;-144.99;nan;52564.28;5025642;28;20016;-69
2024/02/27 03:46:16;;;;;;;;;;;;;;;-144.99;nan;52611.16;5025481;28;20028;-70
2024/02/27 03:48:42;;;;;;;;;;;;;;;-144.99;nan;52629.50;5020650;28;19929;-71
2024/02/27 03:51:09;;;;;;;;;;;;;;;-144.99;nan;52603.00;5026078;28;20392;-70
2024/02/27 03:53:35;;;;;;;;;;;;;;;-144.99;nan;52635.63;5026146;28;20389;-69
2024/02/27 03:56:04;;;;;;;;;;;;;;;-144.99;nan;52594.84;5025223;28;20898;-69
2024/02/27 03:58:30;;;;;;;;;;;;;;;-144.99;nan;52558.16;5022974;28;19925;-70
2024/02/27 04:00:56;;;;;;;;;;;;;;;-144.99;nan;52603.00;5025170;28;20087;-70
2024/02/27 04:03:24;;;;;;;;;;;;;;;-144.99;nan;52578.53;5025040;28;20020;-70
2024/02/27 04:05:50;;;;;;;;;;;;;;;-144.99;nan;52574.47;5025226;28;19932;-69
2024/02/27 04:08:17;;;;;;;;;;;;;;;-144.99;nan;52578.53;5024355;28;19967;-69
2024/02/27 04:10:44;;;;;;;;;;;;;;;-144.99;nan;52609.13;5023837;28;19959;-69
2024/02/27 04:13:10;;;;;;;;;;;;;;;-144.99;nan;52603.00;5024949;28;19925;-69
2024/02/27 04:15:36;;;;;;;;;;;;;;;-144.99;nan;52594.84;5025743;28;19992;-69
2024/02/27 04:18:04;;;;;;;;;;;;;;;-144.99;nan;52611.16;5025132;28;19929;-70
2024/02/27 04:20:31;;;;;;;;;;;;;;;-144.99;nan;52582.63;5023668;28;19935;-70
2024/02/27 04:22:58;;;;;;;;;;;;;;;-144.99;nan;52611.16;5025471;28;19939;-70
2024/02/27 04:25:24;;;;;;;;;;;;;;;-144.99;nan;52580.59;5024121;28;20437;-69
2024/02/27 04:27:51;;;;;;;;;;;;;;;-144.99;nan;52586.69;5023652;28;19947;-69
2024/02/27 04:30:17;;;;;;;;;;;;;;;-144.99;nan;52594.84;5023724;28;20012;-67
2024/02/27 04:32:44;;;;;;;;;;;;;;;-144.99;nan;52578.53;5020908;28;19925;-70
2024/02/27 04:35:10;;;;;;;;;;;;;;;-144.99;nan;52603.00;5030534;28;19929;-68
2024/02/27 04:37:38;;;;;;;;;;;;;;;-144.99;nan;52623.38;5026198;28;20413;-69
2024/02/27 04:40:05;;;;;;;;;;;;;;;-144.99;nan;52582.63;5025721;28;20496;-69
2024/02/27 04:42:32;;;;;;;;;;;;;;;-144.99;nan;52623.38;5024496;28;20024;-67
2024/02/27 04:45:00;;;;;;;;;;;;;;;-144.99;nan;52576.50;5024790;28;20562;-70
2024/02/27 04:47:27;;;;;;;;;;;;;;;-144.99;nan;52594.84;5006722;28;20559;-71
2024/02/27 04:49:53;;;;;;;;;;;;;;;-144.99;nan;52603.00;5024907;28;19936;-70
2024/02/27 04:52:19;;;;;;;;;;;;;;;-144.99;nan;52568.34;5022462;28;19968;-73
2024/02/27 04:54:47;;;;;;;;;;;;;;;-144.99;nan;52603.00;5022679;28;20488;-70
2024/02/27 04:57:14;;;;;;;;;;;;;;;-144.99;nan;52619.31;5023012;28;20056;-69
2024/02/27 04:59:40;;;;;;;;;;;;;;;-144.99;nan;52605.03;5024515;28;19933;-70
2024/02/27 05:02:06;;;;;;;;;;;;;;;-144.99;nan;52609.13;5023560;28;20220;-69
2024/02/27 05:04:33;;;;;;;;;;;;;;;-144.99;nan;52558.16;5023645;28;20012;-70
2024/02/27 05:06:59;;;;;;;;;;;;;;;-144.99;nan;52623.38;5023938;28;20364;-69
2024/02/27 05:09:26;;;;;;;;;;;;;;;-144.99;nan;52605.03;5024067;28;19929;-69
2024/02/27 05:11:53;;;;;;;;;;;;;;;-144.99;nan;52568.34;5022964;28;19975;-70
2024/02/27 05:14:20;;;;;;;;;;;;;;;-144.99;nan;52590.78;5021668;28;19976;-69
2024/02/27 05:16:46;;;;;;;;;;;;;;;-144.99;nan;52623.38;5024054;28;19997;-70
2024/02/27 05:19:13;;;;;;;;;;;;;;;-144.99;nan;52631.53;5023663;28;20020;-70
2024/02/27 05:21:39;;;;;;;;;;;;;;;-144.99;nan;52627.47;5026592;28;19929;-70
2024/02/27 05:24:06;;;;;;;;;;;;;;;-144.99;nan;52578.53;5025720;28;19933;-68
2024/02/27 05:26:33;;;;;;;;;;;;;;;-144.99;nan;52619.31;5024319;28;19933;-69
2024/02/27 05:29:01;;;;;;;;;;;;;;;-144.99;nan;52566.31;5032697;28;19929;-69
2024/02/27 05:31:28;;;;;;;;;;;;;;;-144.99;nan;52582.63;5027284;28;19952;-68
2024/02/27 05:33:55;;;;;;;;;;;;;;;-144.99;nan;52592.81;5025283;28;19933;-70
2024/02/27 05:36:21;;;;;;;;;;;;;;;-144.99;nan;52621.34;5020616;28;20189;-70
2024/02/27 05:38:49;;;;;;;;;;;;;;;-144.99;nan;52578.53;5025040;28;19964;-71
2024/02/27 05:41:15;;;;;;;;;;;;;;;-144.99;nan;52572.44;5023615;28;19939;-71
2024/02/27 05:43:42;;;;;;;;;;;;;;;-144.99;nan;52615.25;5024465;28;20020;-69
2024/02/27 05:46:10;;;;;;;;;;;;;;;-144.99;nan;52576.50;5021359;28;20063;-69
2024/02/27 05:48:37;;;;;;;;;;;;;;;-144.99;nan;52611.16;5023343;28;20028;-69
2024/02/27 05:51:04;;;;;;;;;;;;;;;-144.99;nan;52623.38;5023998;28;19929;-70
2024/02/27 05:53:30;;;;;;;;;;;;;;;-144.99;nan;52639.69;5023763;28;19961;-71
2024/02/27 05:55:57;;;;;;;;;;;;;;;-144.99;nan;52619.31;5021452;28;19936;-70
2024/02/27 05:58:23;;;;;;;;;;;;;;;-144.99;nan;52598.94;5022187;28;20099;-71
2024/02/27 06:00:50;;;;;;;;;;;;;;;-144.99;nan;52611.16;5023952;28;19940;-72
2024/02/27 06:03:18;;;;;;;;;;;;;;;-144.99;nan;52627.47;5023971;28;20013;-69
2024/02/27 06:05:44;;;;;;;;;;;;;;;-144.99;nan;52588.75;5023636;28;19929;-70
2024/02/27 06:08:11;;;;;;;;;;;;;;;-144.99;nan;52590.78;5022045;28;20024;-70
2024/02/27 06:10:38;;;;;;;;;;;;;;;-144.99;nan;52611.16;5023187;28;20042;-70
2024/02/27 06:13:04;;;;;;;;;;;;;;;-144.99;nan;52607.09;5023517;28;19925;-70
2024/02/27 06:15:31;;;;;;;;;;;;;;;-144.99;nan;52603.00;5023579;28;20614;-70
2024/02/27 06:17:57;;;;;;;;;;;;;;;-144.99;nan;52590.78;5024247;28;20021;-69
2024/02/27 06:23:10;;;;;;;;;;;;;;;-144.99;nan;52639.69;5026701;28;20030;-69
2024/02/27 06:25:36;;;;;;;;;;;;;;;-144.99;nan;52615.25;5026445;28;19933;-70
2024/02/27 06:28:03;;;;;;;;;;;;;;;-144.99;nan;52611.16;5026519;28;19925;-69
2024/02/27 06:30:29;;;;;;;;;;;;;;;-144.99;nan;52619.31;5024829;28;20008;-74
2024/02/27 06:32:55;;;;;;;;;;;;;;;-144.99;nan;52603.00;5031587;28;19956;-71
2024/02/27 06:35:24;;;;;;;;;;;;;;;-144.99;nan;52611.16;5027261;28;19991;-71
2024/02/27 06:37:51;;;;;;;;;;;;;;;-144.99;nan;52586.69;5032661;28;19937;-72
2024/02/27 06:40:18;;;;;;;;;;;;;;;-144.99;nan;52558.16;5020057;28;20019;-71
2024/02/27 06:42:44;;;;;;;;;;;;;;;-144.99;nan;52613.19;5026459;28;19986;-73
2024/02/27 06:45:11;;;;;;;;;;;;;;;-144.99;nan;52615.25;5027635;28;19960;-72
2024/02/27 06:47:38;;;;;;;;;;;;;;;-144.99;nan;52615.25;5026898;28;19991;-73
2024/02/27 06:50:05;;;;;;;;;;;;;;;-144.99;nan;52570.38;4331977;28;10000751;-72
2024/02/27 06:52:31;;;;;;;;;;;;;;;-144.99;nan;52615.25;5023967;28;20369;-74
2024/02/27 06:54:59;;;;;;;;;;;;;;;-144.99;nan;52594.84;5023397;28;20003;-72
2024/02/27 06:57:26;;;;;;;;;;;;;;;-144.99;nan;52578.53;5020972;28;19936;-73
2024/02/27 06:59:52;;;;;;;;;;;;;;;-144.99;nan;52582.63;5023109;28;20486;-72
2024/02/27 07:02:18;;;;;;;;;;;;;;;-144.99;nan;52625.44;5019056;28;20031;-73
2024/02/27 07:04:45;;;;;;;;;;;;;;;-144.99;nan;52586.69;5023663;28;20013;-71
2024/02/27 07:07:12;;;;;;;;;;;;;;;-144.99;nan;52576.50;5021562;28;19929;-74
2024/02/27 07:09:38;;;;;;;;;;;;;;;-144.99;nan;52603.00;5021976;28;19929;-74
2024/02/27 07:12:07;;;;;;;;;;;;;;;-144.99;nan;52578.53;5021354;28;20697;-73
2024/02/27 07:14:35;;;;;;;;;;;;;;;-144.99;nan;52584.66;5021273;28;19936;-73
2024/02/27 07:17:01;;;;;;;;;;;;;;;-144.99;nan;52596.88;5022692;28;19929;-72
2024/02/27 07:19:28;;;;;;;;;;;;;;;-144.99;nan;52586.69;5022393;28;19937;-73
2024/02/27 07:21:54;;;;;;;;;;;;;;;-144.99;nan;52574.47;5020720;28;19947;-73
2024/02/27 07:24:20;;;;;;;;;;;;;;;-144.99;nan;52660.09;5019273;28;19929;-73
2024/02/27 07:26:47;;;;;;;;;;;;;;;-144.99;nan;52590.78;5029264;28;20439;-72
2024/02/27 07:29:15;;;;;;;;;;;;;;;-144.99;nan;52566.31;5023385;28;19968;-71
2024/02/27 07:31:42;;;;;;;;;;;;;;;-144.99;nan;52590.78;5023278;28;20032;-73
2024/02/27 07:34:11;;;;;;;;;;;;;;;-144.99;nan;52629.50;5022341;28;19929;-73
2024/02/27 07:36:37;;;;;;;;;;;;;;;-144.99;nan;52631.53;5021239;28;20902;-72
2024/02/27 07:39:04;;;;;;;;;;;;;;;-144.99;nan;52562.25;5022813;28;20004;-71
2024/02/27 07:41:30;;;;;;;;;;;;;;;-144.99;nan;52582.63;5020710;28;20378;-72
2024/02/27 07:43:57;;;;;;;;;;;;;;;-144.99;nan;52590.78;5016883;28;19929;-73
2024/02/27 07:46:24;;;;;;;;;;;;;;;-144.99;nan;52598.94;5022035;28;19933;-73
2024/02/27 07:48:51;;;;;;;;;;;;;;;-144.99;nan;52615.25;5023903;28;20381;-74
2024/02/27 07:51:27;;;;;;;;;;;;;;;-144.99;nan;52590.78;5021922;28;19960;-73
2024/02/27 07:53:53;;;;;;;;;;;;;;;-144.99;nan;52570.38;5019719;28;19939;-73
2024/02/27 07:56:20;;;;;;;;;;;;;;;-144.99;nan;52588.75;5022279;28;20052;-71
2024/02/27 07:58:46;;;;;;;;;;;;;;;-144.99;nan;52582.63;5024194;28;19925;-72
2024/02/27 08:01:13;;;;;;;;;;;;;;;-144.99;nan;52586.69;5025099;28;19929;-72
2024/02/27 08:03:40;;;;;;;;;;;;;;;-144.99;nan;52586.69;5022514;28;19925;-72
2024/02/27 08:06:07;;;;;;;;;;;;;;;-144.99;nan;52574.47;5023336;28;19964;-72
2024/02/27 08:08:33;;;;;;;;;;;;;;;-144.99;nan;52592.81;5022165;28;20938;-73
2024/02/27 08:11:02;;;;;;;;;;;;;;;-144.99;nan;52643.78;5023340;28;19928;-72
2024/02/27 08:13:28;;;;;;;;;;;;;;;-144.99;nan;52584.66;4671604;28;10000305;-73
2024/02/27 08:15:55;;;;;;;;;;;;;;;-144.99;nan;52590.78;5027477;28;19929;-72
2024/02/27 08:18:21;;;;;;;;;;;;;;;-144.99;nan;52578.53;5023817;28;19925;-73
2024/02/27 08:20:49;;;;;;;;;;;;;;;-144.99;nan;52603.00;5021684;28;19925;-73
2024/02/27 08:23:15;;;;;;;;;;;;;;;-144.99;nan;52603.00;5023148;28;19925;-73
2024/02/27 08:25:42;;;;;;;;;;;;;;;-144.99;nan;52566.31;5019354;28;19925;-74
2024/02/27 08:28:08;;;;;;;;;;;;;;;-144.99;nan;52590.78;5021407;28;20058;-72
2024/02/27 08:30:36;;;;;;;;;;;;;;;-144.99;nan;52592.81;5022862;28;20401;-73
2024/02/27 08:33:03;;;;;;;;;;;;;;;-144.99;nan;52584.66;5019875;28;19991;-72
2024/02/27 08:35:30;;;;;;;;;;;;;;;-144.99;nan;52603.00;5022775;28;20649;-72
2024/02/27 08:37:58;;;;;;;;;;;;;;;-144.99;nan;52635.63;5032643;28;20023;-72
2024/02/27 08:40:25;;;;;;;;;;;;;;;-144.99;nan;52607.09;5022231;28;20453;-73
2024/02/27 08:42:52;;;;;;;;;;;;;;;-144.99;nan;52594.84;5021138;28;19928;-73
2024/02/27 08:45:19;;;;;;;;;;;;;;;-144.99;nan;52586.69;5022915;28;20034;-73
2024/02/27 08:47:45;;;;;;;;;;;;;;;-144.99;nan;52598.94;5020522;28;19932;-73
2024/02/27 08:50:13;;;;;;;;;;;;;;;-144.99;nan;52631.53;5021794;28;20023;-73
2024/02/27 08:52:39;;;;;;;;;;;;;;;-144.99;nan;52611.16;5021882;28;19925;-72
2024/02/27 08:55:08;;;;;;;;;;;;;;;-144.99;nan;52598.94;5021659;28;19931;-73
2024/02/27 08:57:34;;;;;;;;;;;;;;;-144.99;nan;52568.34;5015583;28;19940;-71
2024/02/27 09:00:02;;;;;;;;;;;;;;;-144.99;nan;52582.63;5021862;28;20038;-72
2024/02/27 09:02:28;;;;;;;;;;;;;;;-144.99;nan;52590.78;5022172;28;20452;-73
2024/02/27 09:04:55;;;;;;;;;;;;;;;-144.99;nan;52580.59;5022485;28;19976;-74
2024/02/27 09:07:21;;;;;;;;;;;;;;;-144.99;nan;52582.63;5024108;28;20066;-75
2024/02/27 09:09:47;;;;;;;;;;;;;;;-144.99;nan;52554.09;5045899;22;20019;-71
2024/02/27 09:12:17;;;;;;;;;;;;;;;-144.99;nan;52588.75;5024550;28;19968;-70
2024/02/27 09:14:43;;;;;;;;;;;;;;;-144.99;nan;52627.47;5018427;28;19980;-71
2024/02/27 09:17:09;;;;;;;;;;;;;;;-144.99;nan;52598.94;5024275;28;20022;-72
2024/02/27 09:19:36;;;;;;;;;;;;;;;-144.99;nan;52578.53;5023221;28;20310;-71
2024/02/27 09:22:02;;;;;;;;;;;;;;;-144.99;nan;52574.47;5024016;28;19987;-72
2024/02/27 09:24:29;;;;;;;;;;;;;;;-144.99;nan;52594.84;5025175;28;20006;-71
2024/02/27 09:26:55;;;;;;;;;;;;;;;-144.99;nan;52586.69;5022238;28;19925;-72
2024/02/27 09:29:23;;;;;;;;;;;;;;;-144.99;nan;52582.63;5021582;28;20006;-71
2024/02/27 09:31:49;;;;;;;;;;;;;;;-144.99;nan;52545.94;5021797;28;20012;-71
2024/02/27 09:34:16;;;;;;;;;;;;;;;-144.99;nan;52582.63;5024135;28;20456;-71
2024/02/27 09:36:42;;;;;;;;;;;;;;;-144.99;nan;52576.50;5025862;28;19929;-71
2024/02/27 09:39:09;;;;;;;;;;;;;;;-144.99;nan;52558.16;5021761;28;20310;-73
2024/02/27 09:41:44;;;;;;;;;;;;;;;-144.99;nan;52598.94;5024106;28;19936;-72
2024/02/27 09:44:11;;;;;;;;;;;;;;;-144.99;nan;52578.53;5022493;28;20192;-71
2024/02/27 09:46:39;;;;;;;;;;;;;;;-144.99;nan;52570.38;5013561;28;19936;-72
2024/02/27 09:49:07;;;;;;;;;;;;;;;-144.99;nan;52590.78;5022143;28;19996;-70
2024/02/27 09:51:34;;;;;;;;;;;;;;;-144.99;nan;52586.69;5023646;28;20100;-71
2024/02/27 09:54:01;;;;;;;;;;;;;;;-144.99;nan;52558.16;5024278;28;20020;-72
2024/02/27 09:56:28;;;;;;;;;;;;;;;-144.99;nan;52582.63;5023161;28;19932;-72
2024/02/27 09:58:55;;;;;;;;;;;;;;;-144.99;nan;52594.84;5029190;28;19971;-72
2024/02/27 10:01:23;;;;;;;;;;;;;;;-144.99;nan;52566.31;5019642;28;20008;-72
2024/02/27 10:03:50;;;;;;;;;;;;;;;-144.99;nan;52615.25;5027983;28;20480;-73
2024/02/27 10:06:18;;;;;;;;;;;;;;;-144.99;nan;52586.69;5022076;28;19968;-73
2024/02/27 10:08:47;;;;;;;;;;;;;;;-144.99;nan;52521.47;5027506;28;20395;-71
2024/02/27 10:11:13;;;;;;;;;;;;;;;-144.99;nan;52590.78;5025578;28;20288;-72
2024/02/27 10:13:40;;;;;;;;;;;;;;;-144.99;nan;52537.78;5026524;28;19937;-71
2024/02/27 10:16:07;;;;;;;;;;;;;;;-144.99;nan;52578.53;5027506;28;20006;-72
2024/02/27 10:18:33;;;;;;;;;;;;;;;-144.99;nan;52576.50;5027227;28;20292;-73
2024/02/27 10:21:01;;;;;;;;;;;;;;;-144.99;nan;52570.38;5028067;28;20363;-71
2024/02/27 10:23:28;;;;;;;;;;;;;;;-144.99;nan;52598.94;5021379;28;20060;-72
2024/02/27 10:26:06;;;;;;;;;;;;;;;-144.99;nan;52586.69;5027622;28;19979;-71
2024/02/27 10:28:34;;;;;;;;;;;;;;;-144.99;nan;52605.03;5024359;28;19933;-71
2024/02/27 10:31:00;;;;;;;;;;;;;;;-144.99;nan;52590.78;5024750;28;19929;-73
2024/02/27 10:33:27;;;;;;;;;;;;;;;-144.99;nan;52598.94;5028669;28;19991;-71
2024/02/27 10:35:57;;;;;;;;;;;;;;;-144.99;nan;52541.84;5023162;28;19956;-76
2024/02/27 10:38:25;;;;;;;;;;;;;;;-144.99;nan;52554.09;5017204;28;19936;-73
2024/02/27 10:40:52;;;;;;;;;;;;;;;-144.99;nan;52570.38;5023377;28;19925;-74
2024/02/27 10:43:19;;;;;;;;;;;;;;;-144.99;nan;52586.69;5025973;28;19929;-74
2024/02/27 10:45:48;;;;;;;;;;;;;;;-144.99;nan;52615.25;5011788;28;19935;-70
2024/02/27 10:48:15;;;;;;;;;;;;;;;-144.99;nan;52578.53;5026590;28;19956;-71
2024/02/27 10:50:42;;;;;;;;;;;;;;;-144.99;nan;52566.31;5027273;28;20300;-71
2024/02/27 10:53:09;;;;;;;;;;;;;;;-144.99;nan;52594.84;5027063;28;20444;-71
2024/02/27 10:55:37;;;;;;;;;;;;;;;-144.99;nan;52584.66;5022850;28;19929;-72
2024/02/27 10:58:04;;;;;;;;;;;;;;;-144.99;nan;52545.94;5012035;28;20123;-71
2024/02/27 11:00:33;;;;;;;;;;;;;;;-144.99;nan;52600.97;5028440;28;19929;-71
2024/02/27 11:03:01;;;;;;;;;;;;;;;-144.99;nan;52552.03;5029571;28;19929;-71
2024/02/27 11:05:28;;;;;;;;;;;;;;;-144.99;nan;52594.84;5023075;28;19929;-72
2024/02/27 11:07:55;;;;;;;;;;;;;;;-144.99;nan;52590.78;5019882;28;20417;-72
2024/02/27 11:10:22;;;;;;;;;;;;;;;-144.99;nan;52574.47;5022352;28;20350;-71
2024/02/27 11:12:52;;;;;;;;;;;;;;;-144.99;nan;52550.00;5027169;28;19972;-71
2024/02/27 11:15:20;;;;;;;;;;;;;;;-144.99;nan;52623.38;5022649;28;19969;-71
2024/02/27 11:17:50;;;;;;;;;;;;;;;-144.99;nan;52529.63;5025155;28;19940;-71
2024/02/27 11:20:17;;;;;;;;;;;;;;;-144.99;nan;52533.69;5020815;28;19973;-72
2024/02/27 11:22:44;;;;;;;;;;;;;;;-144.99;nan;52598.94;5025676;28;19944;-71
2024/02/27 11:25:11;;;;;;;;;;;;;;;-144.99;nan;52558.16;5025599;28;20036;-72
2024/02/27 11:27:38;;;;;;;;;;;;;;;-144.99;nan;52547.97;5029823;28;20020;-71
2024/02/27 11:30:07;;;;;;;;;;;;;;;-144.99;nan;52611.16;5025625;28;19941;-72
2024/02/27 11:32:34;;;;;;;;;;;;;;;-144.99;nan;52529.63;5024053;28;19972;-71
2024/02/27 11:35:02;;;;;;;;;;;;;;;-144.99;nan;52572.44;5029967;28;19969;-71
2024/02/27 11:37:29;;;;;;;;;;;;;;;-144.99;nan;52598.94;5027356;28;19925;-72
2024/02/27 11:39:57;;;;;;;;;;;;;;;-144.99;nan;52547.97;5027670;28;20092;-71
2024/02/27 11:42:28;;;;;;;;;;;;;;;-144.99;nan;52578.53;5022493;28;19929;-71
2024/02/27 11:45:04;;;;;;;;;;;;;;;-144.99;nan;52533.69;5020897;28;19956;-71
2024/02/27 11:47:36;;;;;;;;;;;;;;;-144.99;nan;52558.16;5024494;28;19929;-71
2024/02/27 11:50:03;;;;;;;;;;;;;;;-144.99;nan;52588.75;5022666;28;19936;-73
2024/02/27 11:52:33;;;;;;;;;;;;;;;-144.99;nan;52582.63;5021013;28;20410;-71
2024/02/27 11:55:05;;;;;;;;;;;;;;;-144.99;nan;52570.38;5019974;28;20034;-70
2024/02/27 11:57:32;;;;;;;;;;;;;;;-144.99;nan;52572.44;5022537;28;19928;-72
2024/02/27 12:00:05;;;;;;;;;;;;;;;-144.99;nan;52574.47;5026029;28;20026;-72
2024/02/27 12:02:35;;;;;;;;;;;;;;;-144.99;nan;52594.84;5023606;28;20011;-71
2024/02/27 12:05:04;;;;;;;;;;;;;;;-144.99;nan;52552.03;5026172;28;20011;-71
2024/02/27 12:07:30;;;;;;;;;;;;;;;-144.99;nan;52525.56;5028487;28;20378;-70
2024/02/27 12:10:05;;;;;;;;;;;;;;;-144.99;nan;52582.63;5028104;28;20019;-72
2024/02/27 12:12:32;;;;;;;;;;;;;;;-144.99;nan;52584.66;5023794;28;19949;-70
2024/02/27 12:14:59;;;;;;;;;;;;;;;-144.99;nan;52545.94;5025684;28;20048;-71
2024/02/27 12:17:26;;;;;;;;;;;;;;;-144.99;nan;52576.50;5019481;28;19937;-71
2024/02/27 12:19:53;;;;;;;;;;;;;;;-144.99;nan;52552.03;5024818;28;20184;-72
2024/02/27 12:22:20;;;;;;;;;;;;;;;-144.99;nan;52554.09;5031723;28;19929;-72
2024/02/27 12:24:47;;;;;;;;;;;;;;;-144.99;nan;52574.47;5021965;28;19968;-73
2024/02/27 12:27:14;;;;;;;;;;;;;;;-144.99;nan;52586.69;5023665;28;19933;-73
2024/02/27 12:29:41;;;;;;;;;;;;;;;-144.99;nan;52566.31;5023728;28;19929;-72
2024/02/27 12:32:08;;;;;;;;;;;;;;;-144.99;nan;52603.00;5022277;28;19968;-71
2024/02/27 12:34:35;;;;;;;;;;;;;;;-144.99;nan;52582.63;5027288;28;19980;-70
2024/02/27 12:37:04;;;;;;;;;;;;;;;-144.99;nan;52566.31;5023697;28;19929;-71
2024/02/27 12:39:32;;;;;;;;;;;;;;;-144.99;nan;52607.09;5024594;28;19933;-70
2024/02/27 12:42:00;;;;;;;;;;;;;;;-144.99;nan;52529.63;5024796;28;19929;-70
2024/02/27 12:44:27;;;;;;;;;;;;;;;-144.99;nan;52574.47;5025478;28;19929;-72
2024/02/27 12:46:53;;;;;;;;;;;;;;;-144.99;nan;52578.53;5027632;28;19960;-73